Time;durP1;ratioP1;P1;durP2;ratioP2;P2;SDS_P1;SDS_P2;PMS_P1;PMS_P2;Temp;Humidity;BMP_temperature;BMP_pressure;BME280_temperature;BME280_humidity;BME280_pressure;Samples;Min_cycle;Max_cycle;Signal;HPM_P1;HPM_P2
2023/02/12 00:01:22;;;;;;;43.47;29.87;;;;;;;-1.84;45.37;100452.38;5036916;28;20067;-81
2023/02/12 00:03:48;;;;;;;44.53;31.80;;;;;;;-1.91;45.44;100446.69;5038117;28;20040;-81
2023/02/12 00:06:13;;;;;;;51.73;35.00;;;;;;;-1.73;45.57;100476.81;5038862;28;20030;-81
2023/02/12 00:08:39;;;;;;;58.30;38.80;;;;;;;-0.91;45.31;100610.84;5037363;28;20102;-81
2023/02/12 00:11:10;;;;;;;49.77;32.00;;;;;;;-2.05;45.47;100431.84;5038732;28;20569;-80
2023/02/12 00:13:36;;;;;;;41.40;27.27;;;;;;;-1.35;45.84;100549.16;5037466;28;20030;-81
2023/02/12 00:16:09;;;;;;;41.63;27.60;;;;;;;-1.99;45.73;100454.00;5036983;28;20171;-81
2023/02/12 00:18:35;;;;;;;39.50;28.53;;;;;;;-1.46;45.63;100554.91;5038878;28;20029;-81
2023/02/12 00:21:01;;;;;;;43.03;28.77;;;;;;;-2.35;45.27;100431.59;5039717;28;20040;-81
2023/02/12 00:23:26;;;;;;;39.27;27.13;;;;;;;-2.84;45.66;100334.06;5037996;28;20025;-81
2023/02/12 00:25:51;;;;;;;39.27;26.23;;;;;;;-1.26;45.17;100566.00;5039430;28;20040;-81
2023/02/12 00:28:17;;;;;;;52.17;31.40;;;;;;;-1.06;45.57;100595.16;5040397;28;20029;-81
2023/02/12 00:30:42;;;;;;;68.33;36.53;;;;;;;-1.82;45.19;100460.91;5038764;28;20021;-81
2023/02/12 00:33:08;;;;;;;57.00;34.93;;;;;;;-1.95;45.30;100425.31;5034667;28;20391;-81
2023/02/12 00:35:33;;;;;;;45.67;27.87;;;;;;;-1.13;44.95;100569.63;5035196;28;20034;-81
2023/02/12 00:37:59;;;;;;;41.17;26.03;;;;;;;-1.54;45.43;100473.28;5035079;28;20083;-82
2023/02/12 00:40:24;;;;;;;40.50;27.83;;;;;;;-0.67;45.16;100610.44;5032523;28;20087;-81
2023/02/12 00:42:50;;;;;;;40.90;23.83;;;;;;;-1.12;45.18;100540.22;5035008;28;20041;-81
2023/02/12 00:45:15;;;;;;;41.47;25.90;;;;;;;-1.71;45.38;100443.94;5034543;28;20105;-82
2023/02/12 00:47:41;;;;;;;42.53;27.27;;;;;;;-1.06;45.21;100563.22;5034930;28;20029;-81
2023/02/12 00:50:06;;;;;;;44.07;27.73;;;;;;;-2.96;45.35;100238.16;5033546;28;20057;-81
2023/02/12 00:52:32;;;;;;;42.07;27.43;;;;;;;-0.68;45.44;100645.06;5034625;28;20104;-81
2023/02/12 00:54:57;;;;;;;33.33;23.57;;;;;;;-1.67;45.12;100418.72;5033378;28;20540;-81
2023/02/12 00:57:22;;;;;;;41.37;25.50;;;;;;;-1.05;45.54;100554.53;5034682;28;20033;-81
2023/02/12 00:59:48;;;;;;;40.67;27.17;;;;;;;-0.81;45.21;100568.78;5033021;28;20069;-81
2023/02/12 01:02:13;;;;;;;41.20;26.47;;;;;;;-0.88;45.30;100546.72;5039244;28;20033;-81
2023/02/12 01:04:39;;;;;;;46.13;28.50;;;;;;;-1.01;45.25;100519.75;5037706;28;20029;-81
2023/02/12 01:07:04;;;;;;;47.30;29.10;;;;;;;-0.90;45.80;100561.50;5039195;28;20029;-81
2023/02/12 01:09:29;;;;;;;42.43;26.97;;;;;;;-1.38;45.23;100463.84;5038264;28;20029;-82
2023/02/12 01:11:55;;;;;;;37.90;25.43;;;;;;;-1.43;45.44;100452.88;5039016;28;20029;-81
2023/02/12 01:14:20;;;;;;;38.83;23.23;;;;;;;-1.46;45.47;100504.84;5038694;28;20026;-81
2023/02/12 01:16:46;;;;;;;32.37;21.53;;;;;;;-1.52;45.36;100428.28;5039050;28;20026;-81
2023/02/12 01:19:11;;;;;;;32.03;21.20;;;;;;;-0.95;45.24;100537.59;5037561;28;20086;-81
2023/02/12 01:21:37;;;;;;;29.90;20.60;;;;;;;-1.26;45.16;100457.19;5037900;28;20518;-81
2023/02/12 01:24:03;;;;;;;35.27;22.13;;;;;;;-1.46;45.52;100416.78;5039159;28;20057;-81
2023/02/12 01:26:30;;;;;;;39.07;24.33;;;;;;;-0.50;45.48;100559.41;5039966;28;20489;-81
2023/02/12 01:29:01;;;;;;;36.50;23.17;;;;;;;-1.32;45.16;100407.38;5038811;28;20040;-81
2023/02/12 01:31:30;;;;;;;35.15;23.90;;;;;;;-0.80;45.09;100489.25;5034657;28;20523;-81
2023/02/12 01:33:57;;;;;;;41.03;25.23;;;;;;;-0.44;44.91;100559.06;5033113;28;20017;-81
2023/02/12 01:36:24;;;;;;;39.83;23.00;;;;;;;-2.45;45.42;100214.91;5033065;28;20082;-81
2023/02/12 01:38:50;;;;;;;41.97;23.97;;;;;;;-1.61;44.91;100346.75;5033117;28;20029;-81
2023/02/12 01:41:21;;;;;;;41.77;24.17;;;;;;;-0.36;45.44;100551.72;5033038;28;20029;-81
2023/02/12 01:44:21;;;;;;;42.55;26.30;;;;;;;-0.41;45.32;100544.19;5032869;28;20025;-81
2023/02/12 01:46:55;;;;;;;39.13;23.50;;;;;;;-0.39;45.41;100541.50;5024590;28;20036;-81
2023/02/12 01:49:28;;;;;;;33.97;21.93;;;;;;;-0.62;45.22;100521.16;5037534;28;20028;-81
2023/02/12 01:52:24;;;;;;;36.07;24.43;;;;;;;-0.65;45.74;100478.09;5039280;28;20510;-81
2023/02/12 01:54:52;;;;;;;33.97;24.50;;;;;;;-0.50;45.06;100536.06;5038528;28;20021;-81
2023/02/12 01:57:18;;;;;;;34.53;23.60;;;;;;;-0.61;45.34;100489.97;5041834;28;20033;-81
2023/02/12 01:59:47;;;;;;;39.00;24.83;;;;;;;-0.83;45.11;100451.38;5044404;28;20526;-82
2023/02/12 02:02:12;;;;;;;33.50;23.50;;;;;;;-0.59;45.10;100487.28;5034855;28;20498;-81
2023/02/12 02:04:45;;;;;;;32.93;24.03;;;;;;;-0.48;45.42;100513.47;5033664;28;20120;-81
2023/02/12 02:07:11;;;;;;;40.90;26.13;;;;;;;-0.73;45.00;100449.16;5035097;28;20079;-81
2023/02/12 02:09:38;;;;;;;39.33;25.07;;;;;;;-1.81;45.51;100271.06;5034817;28;20142;-81
2023/02/12 02:14:51;;;;;;;34.93;24.10;;;;;;;-0.51;45.24;100496.31;5035127;28;20564;-81
2023/02/12 02:17:40;;;;;;;37.63;24.17;;;;;;;-0.20;45.98;100536.13;5037824;28;20083;-81
2023/02/12 02:20:28;;;;;;;31.43;22.40;;;;;;;-0.59;46.10;100466.53;5033726;28;20414;-81
2023/02/12 02:23:11;;;;;;;36.63;24.37;;;;;;;-0.20;45.54;100542.16;5034700;28;20052;-81
2023/02/12 02:26:07;;;;;;;37.73;24.70;;;;;;;-0.21;45.94;100537.88;5034253;28;20040;-81
2023/02/12 02:28:45;;;;;;;35.40;23.97;;;;;;;-0.40;46.21;100514.72;5034540;28;20553;-81
2023/02/12 02:31:31;;;;;;;40.27;26.50;;;;;;;-0.31;45.90;100523.75;5033196;28;20097;-81
2023/02/12 02:34:17;;;;;;;42.27;25.93;;;;;;;-0.19;45.97;100563.75;5034443;28;20057;-81
2023/02/12 02:36:51;;;;;;;44.97;27.80;;;;;;;-0.18;46.21;100548.09;5035949;28;20487;-81
2023/02/12 02:39:38;;;;;;;41.13;26.90;;;;;;;-0.15;45.71;100547.09;5035492;28;20021;-81
2023/02/12 02:42:04;;;;;;;41.40;27.33;;;;;;;-0.17;46.05;100542.00;5035214;28;20451;-81
2023/02/12 02:44:44;;;;;;;47.67;29.30;;;;;;;-0.39;46.22;100507.78;5035514;28;20037;-81
2023/02/12 02:47:13;;;;;;;43.30;28.37;;;;;;;-0.19;46.53;100546.44;5031992;28;20032;-81
2023/02/12 02:50:02;;;;;;;45.63;28.03;;;;;;;-1.15;46.75;100400.44;5031769;28;20494;-81
2023/02/12 02:52:34;;;;;;;44.27;28.80;;;;;;;-0.67;46.22;100496.31;5031562;28;20487;-81
2023/02/12 02:55:05;;;;;;;43.67;27.07;;;;;;;-0.59;46.34;100495.06;5031625;28;20104;-81
2023/02/12 02:57:37;;;;;;;39.40;25.27;;;;;;;-0.48;46.34;100514.31;5031957;28;20030;-81
2023/02/12 03:00:31;;;;;;;32.60;20.40;;;;;;;-0.82;46.95;100475.53;5032048;28;20140;-81
2023/02/12 03:03:06;;;;;;;28.97;19.17;;;;;;;-0.34;47.22;100549.88;5033012;28;20391;-81
2023/02/12 03:05:38;;;;;;;51.70;32.73;;;;;;;-0.74;47.07;100515.72;5038189;28;20116;-81
2023/02/12 03:08:24;;;;;;;57.88;36.65;;;;;;;-0.91;47.43;100501.97;5038786;28;20033;-81
2023/02/12 03:11:06;;;;;;;62.23;37.10;;;;;;;-0.80;47.28;100492.69;5038849;28;20128;-81
2023/02/12 03:13:39;;;;;;;58.50;36.13;;;;;;;-0.84;47.29;100498.97;5039289;28;20115;-81
2023/02/12 03:16:26;;;;;;;62.53;39.70;;;;;;;-0.42;47.45;100544.25;5037534;28;20119;-81
2023/02/12 03:19:02;;;;;;;62.20;39.63;;;;;;;-1.08;47.27;100461.41;5035295;28;20113;-81
2023/02/12 03:21:38;;;;;;;58.33;36.70;;;;;;;-0.54;47.22;100563.94;5034084;28;20064;-81
2023/02/12 03:24:12;;;;;;;51.80;33.17;;;;;;;-0.45;47.31;100549.63;5035332;28;20083;-81
2023/02/12 03:26:54;;;;;;;52.73;35.53;;;;;;;-0.85;47.40;100507.66;5035343;28;20419;-81
2023/02/12 03:29:19;;;;;;;55.85;35.70;;;;;;;-1.16;46.93;100437.66;5035107;28;20104;-81
2023/02/12 03:32:11;;;;;;;54.20;33.80;;;;;;;-0.42;47.83;100541.66;5038049;28;20171;-81
2023/02/12 03:35:08;;;;;;;53.57;32.33;;;;;;;-0.42;47.76;100542.50;5039984;28;20104;-81
2023/02/12 03:37:39;;;;;;;48.83;30.70;;;;;;;-0.74;47.28;100510.53;5038171;28;20109;-81
2023/02/12 03:40:28;;;;;;;46.87;30.37;;;;;;;-0.69;47.60;100503.34;5039644;28;20037;-81
2023/02/12 03:43:05;;;;;;;49.30;33.13;;;;;;;-1.09;47.67;100451.94;5039814;28;20037;-81
2023/02/12 03:45:57;;;;;;;45.97;30.67;;;;;;;-2.38;47.37;100232.63;5039860;28;20418;-81
2023/02/12 03:48:40;;;;;;;38.40;24.83;;;;;;;-0.59;47.77;100531.38;5040116;28;20439;-81
2023/02/12 03:51:27;;;;;;;36.23;23.57;;;;;;;-0.58;48.00;100527.88;5039478;28;20029;-81
2023/02/12 03:53:55;;;;;;;60.63;33.73;;;;;;;-1.03;47.65;100464.56;5039641;28;20506;-81
2023/02/12 03:56:38;;;;;;;45.43;28.37;;;;;;;-0.57;47.55;100538.16;5039707;28;20017;-81
2023/02/12 03:59:04;;;;;;;41.67;27.83;;;;;;;-0.59;47.52;100523.59;5038610;28;20036;-81
2023/02/12 04:01:31;;;;;;;36.40;23.77;;;;;;;-0.71;47.87;100506.94;5038395;28;20078;-80
2023/02/12 04:03:57;;;;;;;32.67;22.37;;;;;;;-2.57;48.13;100213.78;5038895;28;20025;-81
2023/02/12 04:06:28;;;;;;;35.20;22.50;;;;;;;-1.63;47.77;100383.97;5040272;28;20025;-81
2023/02/12 04:08:55;;;;;;;32.00;21.13;;;;;;;-0.76;47.91;100522.72;5038535;28;20021;-81
2023/02/12 04:11:58;;;;;;;34.90;22.93;;;;;;;-1.44;48.74;100438.28;5040314;28;20099;-81
2023/02/12 04:14:45;;;;;;;30.75;20.42;;;;;;;-1.61;48.72;100444.28;5038791;28;20099;-81
2023/02/12 04:17:20;;;;;;;30.03;19.73;;;;;;;-1.53;48.69;100459.44;5039075;28;20029;-81
2023/02/12 04:20:19;;;;;;;31.30;19.80;;;;;;;-1.10;48.97;100512.47;5041029;28;20148;-80
2023/02/12 04:23:16;;;;;;;28.03;18.20;;;;;;;-1.41;49.01;100461.41;5039511;28;20121;-81
2023/02/12 04:26:01;;;;;;;29.97;19.47;;;;;;;-0.97;48.17;100514.34;5040014;28;20025;-81
2023/02/12 04:28:39;;;;;;;33.73;20.20;;;;;;;-0.90;48.39;100509.66;5041957;28;20064;-81
2023/02/12 04:31:19;;;;;;;32.10;19.10;;;;;;;-1.14;48.24;100475.50;5038822;28;20036;-81
2023/02/12 04:34:03;;;;;;;30.40;19.27;;;;;;;-1.49;48.22;100420.34;5034694;28;20047;-81
2023/02/12 04:36:37;;;;;;;31.17;19.67;;;;;;;-0.96;47.97;100477.13;5033305;28;20028;-81
2023/02/12 04:39:10;;;;;;;36.10;22.77;;;;;;;-1.15;48.26;100463.47;5033477;28;20574;-81
2023/02/12 04:41:37;;;;;;;28.27;19.63;;;;;;;-0.66;48.02;100526.53;5034717;28;20029;-81
2023/02/12 04:44:22;;;;;;;28.37;19.40;;;;;;;-0.58;48.01;100526.09;5034336;28;20030;-81
2023/02/12 04:46:48;;;;;;;33.97;20.43;;;;;;;-1.42;48.07;100406.19;5038686;28;20093;-81
2023/02/12 04:49:16;;;;;;;31.53;20.50;;;;;;;-0.92;47.93;100498.53;5038367;28;20514;-80
2023/02/12 04:51:43;;;;;;;33.27;21.10;;;;;;;-0.84;47.77;100472.19;5040571;28;20054;-81
2023/02/12 04:54:08;;;;;;;30.77;21.00;;;;;;;-1.08;48.03;100445.84;5044257;28;20017;-81
2023/02/12 04:56:33;;;;;;;31.50;21.47;;;;;;;-0.63;47.68;100527.28;5042364;28;20021;-81
2023/02/12 04:58:59;;;;;;;35.77;22.70;;;;;;;-0.77;47.57;100496.88;5035937;28;20032;-81
2023/02/12 05:01:24;;;;;;;40.30;24.23;;;;;;;-1.04;47.62;100465.50;5034852;28;20032;-81
2023/02/12 05:03:51;;;;;;;45.30;27.60;;;;;;;-0.58;47.87;100525.28;5036715;28;20036;-81
2023/02/12 05:06:17;;;;;;;44.03;29.53;;;;;;;-0.74;47.49;100487.22;5037354;28;20132;-81
2023/02/12 05:08:42;;;;;;;44.40;28.03;;;;;;;-1.62;47.63;100336.47;5036879;28;20053;-80
2023/02/12 05:11:08;;;;;;;43.33;27.60;;;;;;;-0.34;47.96;100552.47;5037118;28;20497;-81
2023/02/12 05:13:34;;;;;;;38.90;24.83;;;;;;;-0.68;47.84;100504.19;5035845;28;20082;-80
2023/02/12 05:16:06;;;;;;;33.83;22.03;;;;;;;-0.38;48.27;100564.78;5037141;28;20025;-80
2023/02/12 05:18:32;;;;;;;36.45;24.27;;;;;;;-0.34;47.96;100562.84;5037474;28;20021;-81
2023/02/12 05:21:00;;;;;;;34.53;23.20;;;;;;;-0.98;47.40;100447.03;5036301;28;20033;-81
2023/02/12 05:23:27;;;;;;;36.83;23.13;;;;;;;-0.68;48.09;100512.81;5036656;28;20025;-81
2023/02/12 05:25:53;;;;;;;39.37;23.87;;;;;;;-0.59;47.25;100550.38;5037573;28;20029;-81
2023/02/12 05:28:19;;;;;;;36.73;24.03;;;;;;;-0.86;47.62;100471.44;5037787;28;20477;-81
2023/02/12 05:30:44;;;;;;;36.60;23.63;;;;;;;-1.71;47.42;100321.41;5035819;28;20032;-81
2023/02/12 05:33:09;;;;;;;37.90;23.73;;;;;;;-0.54;47.77;100532.81;5033258;28;20036;-81
2023/02/12 05:35:35;;;;;;;44.10;26.20;;;;;;;-0.71;47.85;100507.78;5035175;28;20505;-81
2023/02/12 05:38:00;;;;;;;51.67;29.83;;;;;;;-0.37;48.27;100570.78;5035290;28;20029;-81
2023/02/12 05:40:25;;;;;;;48.43;30.50;;;;;;;-0.36;48.25;100557.75;5035738;28;20025;-81
2023/02/12 05:42:51;;;;;;;53.47;30.60;;;;;;;-0.52;48.15;100549.13;5035771;28;20029;-81
2023/02/12 05:45:16;;;;;;;68.17;34.93;;;;;;;-0.83;48.26;100498.03;5036906;28;20025;-81
2023/02/12 05:47:42;;;;;;;57.17;33.70;;;;;;;-0.36;48.48;100551.72;5038802;28;20077;-81
2023/02/12 05:50:07;;;;;;;52.77;32.40;;;;;;;-0.19;48.42;100598.34;5036288;28;20486;-81
2023/02/12 05:52:33;;;;;;;60.47;32.30;;;;;;;-0.46;47.90;100530.63;5035924;28;20026;-81
2023/02/12 05:54:58;;;;;;;54.53;31.63;;;;;;;-0.45;48.45;100549.63;5035365;28;20025;-81
2023/02/12 05:57:24;;;;;;;63.33;33.70;;;;;;;-1.66;48.44;100345.31;5034129;28;20171;-81
2023/02/12 05:59:49;;;;;;;66.20;32.90;;;;;;;-0.34;48.59;100555.91;5034484;28;20033;-81
2023/02/12 06:02:15;;;;;;;63.67;36.53;;;;;;;-1.16;48.02;100424.69;5035396;28;20018;-81
2023/02/12 06:04:40;;;;;;;65.13;36.30;;;;;;;-0.66;48.13;100542.09;5035584;28;20064;-81
2023/02/12 06:07:06;;;;;;;73.17;37.73;;;;;;;-0.48;47.89;100536.81;5034567;28;20048;-81
2023/02/12 06:09:33;;;;;;;74.63;40.53;;;;;;;-0.79;48.36;100481.41;5035286;28;20084;-80
2023/02/12 06:11:59;;;;;;;83.60;41.73;;;;;;;-0.21;48.61;100574.22;5035305;28;20025;-81
2023/02/12 06:14:24;;;;;;;72.00;40.83;;;;;;;-0.55;48.41;100557.06;5034028;28;20079;-81
2023/02/12 06:16:50;;;;;;;78.87;43.33;;;;;;;-0.24;48.22;100577.00;5034512;28;20399;-81
2023/02/12 06:19:17;;;;;;;75.90;40.00;;;;;;;-0.52;48.51;100511.97;5035086;28;20021;-81
2023/02/12 06:21:43;;;;;;;81.80;41.80;;;;;;;0.23;48.50;100635.84;5033716;28;20045;-81
2023/02/12 06:24:10;;;;;;;68.83;41.40;;;;;;;-0.41;48.71;100518.25;5035491;28;20151;-81
2023/02/12 06:26:36;;;;;;;71.77;41.27;;;;;;;-0.01;48.78;100583.50;5035777;28;20040;-81
2023/02/12 06:29:01;;;;;;;79.23;41.50;;;;;;;0.35;48.58;100634.34;5035282;28;20029;-81
2023/02/12 06:31:30;;;;;;;85.77;44.50;;;;;;;-0.06;48.42;100555.22;5033836;28;20032;-81
2023/02/12 06:33:57;;;;;;;78.03;44.23;;;;;;;0.32;48.47;100633.59;5031730;28;20025;-81
2023/02/12 06:36:23;;;;;;;70.40;42.90;;;;;;;-0.42;48.60;100480.25;5030676;28;20079;-81
2023/02/12 06:38:49;;;;;;;76.43;44.47;;;;;;;0.53;48.47;100644.53;5030832;28;20021;-81
2023/02/12 06:41:15;;;;;;;73.80;43.27;;;;;;;-0.49;48.12;100468.53;5031957;28;20030;-81
2023/02/12 06:43:40;;;;;;;73.70;45.43;;;;;;;-0.56;48.31;100453.41;5031764;28;20392;-81
2023/02/12 06:46:07;;;;;;;77.17;46.03;;;;;;;0.57;48.45;100638.22;5031694;28;20030;-81
2023/02/12 06:48:32;;;;;;;78.00;47.03;;;;;;;-0.10;47.95;100569.28;5031753;28;20315;-81
2023/02/12 06:51:09;;;;;;;82.53;49.40;;;;;;;0.28;48.45;100606.09;5031594;28;20414;-81
2023/02/12 06:53:35;;;;;;;75.90;49.03;;;;;;;0.75;48.50;100669.31;5030565;28;20481;-81
2023/02/12 06:56:03;;;;;;;83.73;53.90;;;;;;;0.83;47.90;100661.91;5030368;28;20032;-81
2023/02/12 06:58:28;;;;;;;90.53;54.53;;;;;;;0.64;47.82;100649.09;5030331;28;20021;-81
2023/02/12 07:00:54;;;;;;;78.00;49.70;;;;;;;0.25;47.82;100569.09;5030291;28;20037;-81
2023/02/12 07:03:19;;;;;;;80.13;51.53;;;;;;;0.53;48.35;100626.34;5030640;28;20413;-81
2023/02/12 07:05:45;;;;;;;90.83;56.97;;;;;;;0.49;47.90;100613.59;5032769;28;20067;-81
2023/02/12 07:08:10;;;;;;;82.63;51.67;;;;;;;0.09;47.97;100539.72;5031637;28;20021;-81
2023/02/12 07:10:36;;;;;;;92.90;53.93;;;;;;;0.62;47.89;100589.41;5032946;28;20108;-81
2023/02/12 07:13:02;;;;;;;85.03;53.07;;;;;;;0.82;47.87;100631.63;5033258;28;20108;-81
2023/02/12 07:15:28;;;;;;;86.47;51.30;;;;;;;0.56;47.75;100547.38;5034601;28;20025;-80
2023/02/12 07:17:53;;;;;;;79.07;52.70;;;;;;;1.03;47.60;100611.34;5039438;28;20147;-81
2023/02/12 07:20:18;;;;;;;86.47;54.80;;;;;;;1.17;47.75;100639.97;5040092;28;20033;-81
2023/02/12 07:22:44;;;;;;;99.00;62.87;;;;;;;1.00;47.60;100604.56;5041286;28;20053;-81
2023/02/12 07:25:09;;;;;;;92.23;55.93;;;;;;;0.51;47.33;100515.63;5044791;28;20034;-81
2023/02/12 07:27:36;;;;;;;85.40;52.23;;;;;;;1.49;47.66;100669.28;5038427;28;20025;-80
2023/02/12 07:30:03;;;;;;;78.27;48.23;;;;;;;1.43;47.52;100651.41;5034490;28;20095;-81
2023/02/12 07:32:31;;;;;;;78.97;46.03;;;;;;;1.27;47.50;100639.31;5030087;28;20067;-81
2023/02/12 07:34:56;;;;;;;78.67;47.83;;;;;;;1.49;47.23;100654.50;5032310;28;20029;-81
2023/02/12 07:37:22;;;;;;;77.53;46.40;;;;;;;0.86;47.16;100539.53;5031878;28;20021;-81
2023/02/12 07:39:48;;;;;;;81.73;47.87;;;;;;;1.67;47.21;100677.72;5032143;28;20455;-81
2023/02/12 07:42:14;;;;;;;73.07;46.87;;;;;;;0.98;47.14;100562.22;5030897;28;20113;-81
2023/02/12 07:44:39;;;;;;;108.50;63.57;;;;;;;1.61;47.18;100636.47;5032463;28;20160;-81
2023/02/12 07:47:05;;;;;;;72.93;48.63;;;;;;;1.24;46.67;100534.59;5032129;28;20059;-81
2023/02/12 07:49:30;;;;;;;90.90;52.33;;;;;;;1.85;46.69;100650.56;5031118;28;20040;-81
2023/02/12 07:51:56;;;;;;;91.80;56.17;;;;;;;1.59;46.74;100600.13;5035769;28;20033;-81
2023/02/12 07:54:22;;;;;;;96.90;57.70;;;;;;;1.76;46.78;100638.13;5035916;28;20032;-81
2023/02/12 07:56:47;;;;;;;91.37;57.97;;;;;;;1.17;46.81;100530.72;5035618;28;20036;-81
2023/02/12 07:59:15;;;;;;;102.40;63.57;;;;;;;2.11;46.42;100669.78;5034868;28;20069;-81
2023/02/12 08:01:47;;;;;;;101.73;66.93;;;;;;;1.23;46.71;100527.75;5035819;28;20028;-81
2023/02/12 08:04:15;;;;;;;91.88;55.42;;;;;;;2.14;46.81;100664.38;5035797;28;20028;-81
2023/02/12 08:06:43;;;;;;;106.83;68.63;;;;;;;1.80;46.88;100614.41;5037633;28;20514;-81
2023/02/12 08:09:12;;;;;;;109.30;64.83;;;;;;;2.26;46.64;100679.25;5037933;28;20029;-80
2023/02/12 08:11:39;;;;;;;102.00;64.40;;;;;;;1.41;46.78;100536.16;5036905;28;20022;-81
2023/02/12 08:14:04;;;;;;;94.07;60.93;;;;;;;1.63;46.65;100556.50;5036763;28;20033;-81
2023/02/12 08:16:34;;;;;;;88.97;61.23;;;;;;;1.28;46.73;100500.50;5035676;28;20025;-81
2023/02/12 08:18:59;;;;;;;90.83;60.73;;;;;;;2.00;46.72;100591.47;5035129;28;20067;-81
2023/02/12 08:21:27;;;;;;;85.93;58.03;;;;;;;-0.10;46.12;100242.22;5033696;28;20072;-81
2023/02/12 08:23:54;;;;;;;83.80;52.93;;;;;;;2.67;46.54;100681.81;5034159;28;20030;-81
2023/02/12 08:26:34;;;;;;;81.10;53.87;;;;;;;2.75;46.40;100683.91;5035191;28;20075;-81
2023/02/12 08:29:03;;;;;;;73.07;50.03;;;;;;;2.81;46.35;100694.78;5035111;28;20061;-81
2023/02/12 08:31:31;;;;;;;80.07;50.07;;;;;;;2.88;45.71;100693.44;5035072;28;20085;-81
2023/02/12 08:33:57;;;;;;;77.13;49.47;;;;;;;2.27;45.56;100607.13;5034611;28;20099;-80
2023/02/12 08:36:29;;;;;;;74.57;46.77;;;;;;;3.03;45.98;100698.59;5034852;28;20021;-80
2023/02/12 08:38:58;;;;;;;69.50;46.08;;;;;;;2.26;45.37;100598.47;5033920;28;20051;-80
2023/02/12 08:41:26;;;;;;;76.67;52.00;;;;;;;3.15;45.37;100692.56;5034151;28;20101;-80
2023/02/12 08:43:54;;;;;;;80.27;55.93;;;;;;;3.00;45.38;100662.28;5032907;28;20029;-80
2023/02/12 08:46:34;;;;;;;87.83;54.97;;;;;;;3.29;44.78;100708.16;5034098;28;20028;-80
2023/02/12 08:49:04;;;;;;;80.73;51.20;;;;;;;2.38;44.84;100563.81;5033283;28;20108;-80
2023/02/12 08:51:33;;;;;;;70.13;46.50;;;;;;;3.44;44.68;100717.56;5034773;28;20028;-80
2023/02/12 08:54:00;;;;;;;62.93;41.53;;;;;;;3.48;44.52;100716.41;5033443;28;20029;-81
2023/02/12 08:56:28;;;;;;;59.73;39.10;;;;;;;2.92;44.42;100623.66;5034214;28;20025;-81
2023/02/12 08:58:55;;;;;;;48.57;33.00;;;;;;;2.96;44.80;100625.09;5033026;28;20030;-81
2023/02/12 09:01:23;;;;;;;46.57;32.17;;;;;;;3.43;44.29;100697.59;5033549;28;20096;-81
2023/02/12 09:03:49;;;;;;;51.27;35.27;;;;;;;3.39;44.28;100688.31;5034194;28;20091;-81
2023/02/12 09:06:17;;;;;;;47.80;32.27;;;;;;;3.49;44.22;100686.75;5034033;28;20560;-80
2023/02/12 09:08:43;;;;;;;45.83;32.27;;;;;;;3.76;43.88;100732.81;5034485;28;20025;-81
2023/02/12 09:11:12;;;;;;;48.73;32.53;;;;;;;3.17;44.04;100620.25;5033434;28;20092;-80
2023/02/12 09:13:38;;;;;;;44.23;31.70;;;;;;;3.31;43.32;100619.28;5034608;28;20448;-80
2023/02/12 09:16:05;;;;;;;47.07;30.60;;;;;;;4.14;43.61;100738.00;5034327;28;20017;-80
2023/02/12 09:18:31;;;;;;;44.40;31.50;;;;;;;3.80;43.38;100674.22;5034141;28;20025;-80
2023/02/12 09:21:06;;;;;;;42.37;29.20;;;;;;;3.81;43.35;100662.81;5031897;28;20075;-80
2023/02/12 09:23:32;;;;;;;41.53;28.63;;;;;;;4.40;43.11;100733.53;5033362;28;20517;-80
2023/02/12 09:25:57;;;;;;;42.10;29.70;;;;;;;3.73;42.96;100618.94;5033225;28;20025;-80
2023/02/12 09:28:22;;;;;;;38.60;28.00;;;;;;;3.96;42.90;100629.56;5031864;28;20025;-80
2023/02/12 09:30:48;;;;;;;40.53;27.90;;;;;;;3.63;42.90;100610.06;5031965;28;20029;-80
2023/02/12 09:33:13;;;;;;;41.40;28.57;;;;;;;4.53;42.84;100718.69;5033081;28;20414;-80
2023/02/12 09:35:39;;;;;;;40.27;28.77;;;;;;;4.29;42.59;100668.94;5030208;28;20531;-79
2023/02/12 09:38:06;;;;;;;33.30;24.67;;;;;;;4.23;42.53;100634.56;4998612;28;20049;-80
2023/02/12 09:41:05;;;;;;;32.00;23.90;;;;;;;5.06;41.39;100743.53;5001499;28;20033;-81
2023/02/12 09:43:42;;;;;;;30.73;21.53;;;;;;;4.47;41.52;100617.97;4994965;28;20610;-80
2023/02/12 09:46:12;;;;;;;24.80;19.10;;;;;;;5.27;40.82;100716.72;5013908;28;20038;-80
2023/02/12 09:48:54;;;;;;;21.43;15.93;;;;;;;4.45;40.46;100561.47;5012231;28;20034;-80
2023/02/12 09:51:21;;;;;;;21.35;15.90;;;;;;;5.26;40.94;100673.16;5005023;28;20124;-81
2023/02/12 09:53:48;;;;;;;22.43;15.37;;;;;;;5.86;40.53;100733.13;5012933;28;20093;-80
2023/02/12 09:56:19;;;;;;;23.47;18.10;;;;;;;4.67;40.01;100531.94;4999234;28;20078;-81
2023/02/12 09:58:50;;;;;;;24.97;16.20;;;;;;;6.15;39.35;100730.06;5007663;28;20037;-81
2023/02/12 10:01:17;;;;;;;22.77;16.60;;;;;;;6.16;39.38;100726.50;5006829;28;20030;-81
2023/02/12 10:03:45;;;;;;;23.53;17.03;;;;;;;5.39;39.45;100611.06;5005208;28;20050;-81
2023/02/12 10:06:18;;;;;;;23.77;18.40;;;;;;;4.10;39.08;100404.66;4999437;28;20080;-81
2023/02/12 10:09:09;;;;;;;24.43;16.77;;;;;;;6.05;39.08;100724.72;5001534;28;20022;-81
2023/02/12 10:12:09;;;;;;;23.60;17.10;;;;;;;5.79;38.72;100676.91;5011512;28;20045;-81
2023/02/12 10:14:58;;;;;;;27.03;18.70;;;;;;;5.73;39.34;100669.50;5014157;28;20025;-81
2023/02/12 10:18:05;;;;;;;25.67;19.50;;;;;;;5.48;38.40;100620.81;5014732;28;20026;-81
2023/02/12 10:21:08;;;;;;;24.57;17.83;;;;;;;6.22;38.29;100716.34;5004670;28;20068;-80
2023/02/12 10:23:59;;;;;;;26.10;18.90;;;;;;;5.71;39.25;100625.09;5009771;28;20030;-80
2023/02/12 10:26:30;;;;;;;27.20;17.60;;;;;;;5.45;39.39;100600.09;5010667;28;20090;-80
2023/02/12 10:29:00;;;;;;;24.13;17.33;;;;;;;5.59;38.89;100591.16;5000160;28;20029;-80
2023/02/12 10:31:33;;;;;;;24.47;17.00;;;;;;;6.22;38.55;100705.88;4997852;28;20021;-80
2023/02/12 10:33:59;;;;;;;29.33;19.17;;;;;;;6.44;39.13;100728.59;4996574;28;20036;-81
2023/02/12 10:36:45;;;;;;;22.60;16.30;;;;;;;6.47;38.14;100719.66;5000784;28;20418;-81
2023/02/12 10:39:13;;;;;;;23.63;16.87;;;;;;;6.57;39.09;100715.34;5018433;28;20097;-80
2023/02/12 10:41:50;;;;;;;23.03;17.57;;;;;;;6.04;38.38;100621.66;5002200;28;20110;-80
2023/02/12 10:44:16;;;;;;;20.93;16.23;;;;;;;5.96;38.60;100586.50;4995566;28;20025;-81
2023/02/12 10:46:41;;;;;;;23.40;16.57;;;;;;;6.31;38.61;100639.56;4992251;28;20049;-81
2023/02/12 10:49:12;;;;;;;20.80;15.83;;;;;;;6.74;37.59;100717.47;4996399;28;20026;-80
2023/02/12 10:52:02;;;;;;;22.87;16.13;;;;;;;6.82;37.70;100714.22;4990874;28;20316;-80
2023/02/12 10:54:35;;;;;;;19.57;14.43;;;;;;;6.85;37.30;100712.16;5010293;28;20532;-80
2023/02/12 10:57:11;;;;;;;20.03;13.47;;;;;;;6.35;37.80;100622.63;4993961;28;20060;-81
2023/02/12 10:59:37;;;;;;;16.50;13.37;;;;;;;7.06;37.00;100709.56;4991986;28;20018;-80
2023/02/12 11:02:04;;;;;;;17.37;11.93;;;;;;;7.15;36.31;100718.47;4991856;28;20061;-80
2023/02/12 11:04:32;;;;;;;17.47;12.80;;;;;;;7.16;35.88;100678.13;4990665;28;20124;-80
2023/02/12 11:07:05;;;;;;;16.13;12.10;;;;;;;7.52;36.51;100713.63;5005579;28;20033;-80
2023/02/12 11:09:45;;;;;;;17.60;13.23;;;;;;;7.23;35.39;100682.72;4997120;28;20057;-81
2023/02/12 11:12:30;;;;;;;17.50;12.30;;;;;;;7.47;34.27;100721.06;4990413;28;20034;-81
2023/02/12 11:15:14;;;;;;;16.33;11.33;;;;;;;6.91;34.35;100629.44;4991706;28;20061;-81
2023/02/12 11:17:45;;;;;;;15.53;10.77;;;;;;;7.29;35.79;100697.13;4990335;28;20466;-80
2023/02/12 11:20:16;;;;;;;15.80;12.00;;;;;;;7.44;34.78;100730.03;4994073;28;20041;-80
2023/02/12 11:23:27;;;;;;;19.63;13.48;;;;;;;7.06;34.35;100678.03;4997755;28;20046;-81
2023/02/12 11:25:54;;;;;;;20.43;15.30;;;;;;;7.13;35.38;100700.22;4990138;28;20073;-80
2023/02/12 11:28:20;;;;;;;20.57;15.87;;;;;;;6.68;35.74;100608.53;5007485;28;20038;-81
2023/02/12 11:31:01;;;;;;;23.17;15.80;;;;;;;7.17;35.32;100677.16;4997668;28;20027;-80
2023/02/12 11:33:34;;;;;;;20.88;15.82;;;;;;;6.89;35.35;100616.44;5005173;28;20422;-81